sensor_id;sensor_type;location;lat;lon;timestamp;temperature;humidity
45785;DHT22;31489;51.404;5.474;2022-09-29T00:02:15;12.30;71.60
45785;DHT22;31489;51.404;5.474;2022-09-29T00:04:41;12.30;71.50
45785;DHT22;31489;51.404;5.474;2022-09-29T00:07:06;12.30;71.60
45785;DHT22;31489;51.404;5.474;2022-09-29T00:09:32;12.20;71.50
45785;DHT22;31489;51.404;5.474;2022-09-29T00:11:57;12.20;71.40
45785;DHT22;31489;51.404;5.474;2022-09-29T00:14:23;12.20;71.30
45785;DHT22;31489;51.404;5.474;2022-09-29T00:16:49;12.20;71.30
45785;DHT22;31489;51.404;5.474;2022-09-29T00:19:15;12.10;71.10
45785;DHT22;31489;51.404;5.474;2022-09-29T00:21:41;12.10;71.10
45785;DHT22;31489;51.404;5.474;2022-09-29T00:24:06;12.10;71.10
45785;DHT22;31489;51.404;5.474;2022-09-29T00:26:32;12.10;71.00
45785;DHT22;31489;51.404;5.474;2022-09-29T00:28:58;12.00;71.00
45785;DHT22;31489;51.404;5.474;2022-09-29T00:31:30;12.00;71.00
45785;DHT22;31489;51.404;5.474;2022-09-29T00:33:56;11.90;70.90
45785;DHT22;31489;51.404;5.474;2022-09-29T00:36:23;11.90;70.90
45785;DHT22;31489;51.404;5.474;2022-09-29T00:38:49;11.90;71.00
45785;DHT22;31489;51.404;5.474;2022-09-29T00:41:26;11.80;70.90
45785;DHT22;31489;51.404;5.474;2022-09-29T00:46:44;11.80;70.80
45785;DHT22;31489;51.404;5.474;2022-09-29T00:49:22;11.80;70.40
45785;DHT22;31489;51.404;5.474;2022-09-29T00:54:46;11.70;70.50
45785;DHT22;31489;51.404;5.474;2022-09-29T00:57:17;11.70;70.50
45785;DHT22;31489;51.404;5.474;2022-09-29T01:00:03;11.70;70.80
45785;DHT22;31489;51.404;5.474;2022-09-29T01:02:29;11.60;70.50
45785;DHT22;31489;51.404;5.474;2022-09-29T01:04:57;11.60;70.80
45785;DHT22;31489;51.404;5.474;2022-09-29T01:07:25;11.50;70.80
45785;DHT22;31489;51.404;5.474;2022-09-29T01:09:53;11.50;70.80
45785;DHT22;31489;51.404;5.474;2022-09-29T01:12:21;11.50;70.90
45785;DHT22;31489;51.404;5.474;2022-09-29T01:14:48;11.50;70.90
45785;DHT22;31489;51.404;5.474;2022-09-29T01:17:14;11.40;70.90
45785;DHT22;31489;51.404;5.474;2022-09-29T01:31:14;11.30;70.60
45785;DHT22;31489;51.404;5.474;2022-09-29T01:34:00;11.30;70.50
45785;DHT22;31489;51.404;5.474;2022-09-29T01:39:35;11.30;70.70
45785;DHT22;31489;51.404;5.474;2022-09-29T01:42:16;11.20;70.60
45785;DHT22;31489;51.404;5.474;2022-09-29T01:45:10;11.20;70.60
45785;DHT22;31489;51.404;5.474;2022-09-29T01:47:51;11.20;70.50
45785;DHT22;31489;51.404;5.474;2022-09-29T01:50:23;11.20;70.90
45785;DHT22;31489;51.404;5.474;2022-09-29T01:52:57;11.10;70.90
45785;DHT22;31489;51.404;5.474;2022-09-29T01:55:27;11.10;70.80
45785;DHT22;31489;51.404;5.474;2022-09-29T01:58:12;11.10;71.00
45785;DHT22;31489;51.404;5.474;2022-09-29T02:00:44;11.10;70.60
45785;DHT22;31489;51.404;5.474;2022-09-29T02:03:31;11.10;70.90
45785;DHT22;31489;51.404;5.474;2022-09-29T02:06:07;11.00;70.60
45785;DHT22;31489;51.404;5.474;2022-09-29T02:08:39;11.10;70.90
45785;DHT22;31489;51.404;5.474;2022-09-29T02:11:11;11.00;70.90
45785;DHT22;31489;51.404;5.474;2022-09-29T02:16:18;11.00;70.90
45785;DHT22;31489;51.404;5.474;2022-09-29T02:19:00;11.00;71.10
45785;DHT22;31489;51.404;5.474;2022-09-29T02:21:27;11.00;70.90
45785;DHT22;31489;51.404;5.474;2022-09-29T02:23:53;11.00;71.10
45785;DHT22;31489;51.404;5.474;2022-09-29T02:26:19;10.90;71.10
45785;DHT22;31489;51.404;5.474;2022-09-29T02:28:46;10.90;71.20
45785;DHT22;31489;51.404;5.474;2022-09-29T02:31:12;10.90;71.20
45785;DHT22;31489;51.404;5.474;2022-09-29T02:33:38;10.90;71.10
45785;DHT22;31489;51.404;5.474;2022-09-29T02:36:32;10.90;71.10
45785;DHT22;31489;51.404;5.474;2022-09-29T02:39:03;10.90;70.70
45785;DHT22;31489;51.404;5.474;2022-09-29T02:54:58;10.80;70.30
45785;DHT22;31489;51.404;5.474;2022-09-29T02:57:52;10.70;70.50
45785;DHT22;31489;51.404;5.474;2022-09-29T03:00:21;10.70;70.20
45785;DHT22;31489;51.404;5.474;2022-09-29T03:02:47;10.70;70.70
45785;DHT22;31489;51.404;5.474;2022-09-29T03:05:15;10.60;70.70
45785;DHT22;31489;51.404;5.474;2022-09-29T03:07:42;10.60;70.70
45785;DHT22;31489;51.404;5.474;2022-09-29T03:10:09;10.60;70.90
45785;DHT22;31489;51.404;5.474;2022-09-29T03:12:35;10.60;70.80
45785;DHT22;31489;51.404;5.474;2022-09-29T03:15:01;10.60;70.90
45785;DHT22;31489;51.404;5.474;2022-09-29T03:17:26;10.60;70.90
45785;DHT22;31489;51.404;5.474;2022-09-29T03:19:52;10.60;70.90
45785;DHT22;31489;51.404;5.474;2022-09-29T03:22:18;10.60;70.90
45785;DHT22;31489;51.404;5.474;2022-09-29T03:24:44;10.50;70.80
45785;DHT22;31489;51.404;5.474;2022-09-29T03:27:09;10.50;70.80
45785;DHT22;31489;51.404;5.474;2022-09-29T03:29:36;10.50;70.90
45785;DHT22;31489;51.404;5.474;2022-09-29T03:32:02;10.50;70.80
45785;DHT22;31489;51.404;5.474;2022-09-29T03:34:28;10.50;70.90
45785;DHT22;31489;51.404;5.474;2022-09-29T03:36:54;10.50;70.90
45785;DHT22;31489;51.404;5.474;2022-09-29T03:39:21;10.50;70.90
45785;DHT22;31489;51.404;5.474;2022-09-29T03:41:46;10.40;70.90
45785;DHT22;31489;51.404;5.474;2022-09-29T03:44:12;10.40;70.90
45785;DHT22;31489;51.404;5.474;2022-09-29T03:46:37;10.40;70.90
45785;DHT22;31489;51.404;5.474;2022-09-29T03:49:03;10.40;70.80
45785;DHT22;31489;51.404;5.474;2022-09-29T03:51:29;10.40;70.80
45785;DHT22;31489;51.404;5.474;2022-09-29T03:53:54;10.40;70.80
45785;DHT22;31489;51.404;5.474;2022-09-29T03:56:20;10.30;70.80
45785;DHT22;31489;51.404;5.474;2022-09-29T03:58:46;10.40;70.80
45785;DHT22;31489;51.404;5.474;2022-09-29T04:01:11;10.30;70.80
45785;DHT22;31489;51.404;5.474;2022-09-29T04:03:37;10.30;70.80
45785;DHT22;31489;51.404;5.474;2022-09-29T04:06:03;10.30;70.80
45785;DHT22;31489;51.404;5.474;2022-09-29T04:08:28;10.20;70.70
45785;DHT22;31489;51.404;5.474;2022-09-29T04:10:54;10.30;70.90
45785;DHT22;31489;51.404;5.474;2022-09-29T04:13:20;10.20;70.80
45785;DHT22;31489;51.404;5.474;2022-09-29T04:15:48;10.20;70.80
45785;DHT22;31489;51.404;5.474;2022-09-29T04:18:14;10.20;70.80
45785;DHT22;31489;51.404;5.474;2022-09-29T04:20:40;10.20;70.80
45785;DHT22;31489;51.404;5.474;2022-09-29T04:23:05;10.20;70.80
45785;DHT22;31489;51.404;5.474;2022-09-29T04:25:32;10.20;70.80
45785;DHT22;31489;51.404;5.474;2022-09-29T04:27:58;10.20;70.80
45785;DHT22;31489;51.404;5.474;2022-09-29T04:30:23;10.10;70.70
45785;DHT22;31489;51.404;5.474;2022-09-29T04:32:49;10.20;70.70
45785;DHT22;31489;51.404;5.474;2022-09-29T04:35:15;10.10;70.60
45785;DHT22;31489;51.404;5.474;2022-09-29T04:37:40;10.10;70.60
45785;DHT22;31489;51.404;5.474;2022-09-29T04:40:06;10.10;70.60
45785;DHT22;31489;51.404;5.474;2022-09-29T04:42:32;10.10;70.70
45785;DHT22;31489;51.404;5.474;2022-09-29T04:44:58;10.00;70.70
45785;DHT22;31489;51.404;5.474;2022-09-29T04:47:24;10.00;70.70
45785;DHT22;31489;51.404;5.474;2022-09-29T04:49:50;10.00;70.70
45785;DHT22;31489;51.404;5.474;2022-09-29T04:52:15;10.00;71.30
45785;DHT22;31489;51.404;5.474;2022-09-29T04:54:41;10.00;70.70
45785;DHT22;31489;51.404;5.474;2022-09-29T04:57:06;10.00;70.70
45785;DHT22;31489;51.404;5.474;2022-09-29T04:59:32;9.90;70.70
45785;DHT22;31489;51.404;5.474;2022-09-29T05:01:58;9.90;70.70
45785;DHT22;31489;51.404;5.474;2022-09-29T05:04:24;9.90;71.20
45785;DHT22;31489;51.404;5.474;2022-09-29T05:06:49;9.90;70.60
45785;DHT22;31489;51.404;5.474;2022-09-29T05:09:15;9.90;70.60
45785;DHT22;31489;51.404;5.474;2022-09-29T05:11:40;9.80;70.50
45785;DHT22;31489;51.404;5.474;2022-09-29T05:14:06;9.80;70.50
45785;DHT22;31489;51.404;5.474;2022-09-29T05:16:32;9.80;70.50
45785;DHT22;31489;51.404;5.474;2022-09-29T05:18:57;9.80;70.50
45785;DHT22;31489;51.404;5.474;2022-09-29T05:21:23;9.80;70.50
45785;DHT22;31489;51.404;5.474;2022-09-29T05:23:49;9.70;71.00
45785;DHT22;31489;51.404;5.474;2022-09-29T05:26:15;9.80;71.10
45785;DHT22;31489;51.404;5.474;2022-09-29T05:28:45;9.70;70.40
45785;DHT22;31489;51.404;5.474;2022-09-29T05:31:11;9.70;70.20
45785;DHT22;31489;51.404;5.474;2022-09-29T05:33:37;9.70;70.50
45785;DHT22;31489;51.404;5.474;2022-09-29T05:36:08;9.60;70.50
45785;DHT22;31489;51.404;5.474;2022-09-29T05:38:34;9.70;70.50
45785;DHT22;31489;51.404;5.474;2022-09-29T05:41:09;9.60;70.50
45785;DHT22;31489;51.404;5.474;2022-09-29T05:43:35;9.60;70.30
45785;DHT22;31489;51.404;5.474;2022-09-29T05:46:05;9.60;70.60
45785;DHT22;31489;51.404;5.474;2022-09-29T05:48:32;9.60;70.60
45785;DHT22;31489;51.404;5.474;2022-09-29T05:50:58;9.60;70.80
45785;DHT22;31489;51.404;5.474;2022-09-29T05:53:25;9.60;70.90
45785;DHT22;31489;51.404;5.474;2022-09-29T05:55:51;9.60;70.90
45785;DHT22;31489;51.404;5.474;2022-09-29T05:58:17;9.60;71.00
45785;DHT22;31489;51.404;5.474;2022-09-29T06:00:43;9.60;71.10
45785;DHT22;31489;51.404;5.474;2022-09-29T06:03:09;9.60;71.00
45785;DHT22;31489;51.404;5.474;2022-09-29T06:05:37;9.60;71.00
45785;DHT22;31489;51.404;5.474;2022-09-29T06:08:04;9.60;71.00
45785;DHT22;31489;51.404;5.474;2022-09-29T06:10:32;9.60;71.10
45785;DHT22;31489;51.404;5.474;2022-09-29T06:12:58;9.60;71.20
45785;DHT22;31489;51.404;5.474;2022-09-29T06:15:24;9.60;71.40
45785;DHT22;31489;51.404;5.474;2022-09-29T06:17:58;9.60;71.60
45785;DHT22;31489;51.404;5.474;2022-09-29T06:20:25;9.60;71.60
45785;DHT22;31489;51.404;5.474;2022-09-29T06:22:56;9.60;71.90
45785;DHT22;31489;51.404;5.474;2022-09-29T06:25:22;9.60;71.90
45785;DHT22;31489;51.404;5.474;2022-09-29T06:27:48;9.60;72.00
45785;DHT22;31489;51.404;5.474;2022-09-29T06:30:14;9.70;72.10
45785;DHT22;31489;51.404;5.474;2022-09-29T06:32:40;9.70;72.20
45785;DHT22;31489;51.404;5.474;2022-09-29T06:35:06;9.70;72.30
45785;DHT22;31489;51.404;5.474;2022-09-29T06:37:52;9.70;72.40
45785;DHT22;31489;51.404;5.474;2022-09-29T06:40:20;9.70;72.40
45785;DHT22;31489;51.404;5.474;2022-09-29T06:42:47;9.80;72.50
45785;DHT22;31489;51.404;5.474;2022-09-29T06:45:14;9.80;72.50
45785;DHT22;31489;51.404;5.474;2022-09-29T06:47:39;9.80;72.50
45785;DHT22;31489;51.404;5.474;2022-09-29T06:50:05;9.80;72.60
45785;DHT22;31489;51.404;5.474;2022-09-29T06:52:31;9.90;72.80
45785;DHT22;31489;51.404;5.474;2022-09-29T06:54:57;9.90;72.90
45785;DHT22;31489;51.404;5.474;2022-09-29T06:57:22;10.00;73.20
45785;DHT22;31489;51.404;5.474;2022-09-29T06:59:49;10.00;73.50
45785;DHT22;31489;51.404;5.474;2022-09-29T07:02:14;10.00;73.80
45785;DHT22;31489;51.404;5.474;2022-09-29T07:04:40;10.10;74.10
45785;DHT22;31489;51.404;5.474;2022-09-29T07:07:06;10.10;74.20
45785;DHT22;31489;51.404;5.474;2022-09-29T07:09:32;10.10;74.30
45785;DHT22;31489;51.404;5.474;2022-09-29T07:11:57;10.20;74.60
45785;DHT22;31489;51.404;5.474;2022-09-29T07:14:23;10.20;74.70
45785;DHT22;31489;51.404;5.474;2022-09-29T07:16:50;10.30;74.90
45785;DHT22;31489;51.404;5.474;2022-09-29T07:19:17;10.30;75.00
45785;DHT22;31489;51.404;5.474;2022-09-29T07:21:43;10.40;75.20
45785;DHT22;31489;51.404;5.474;2022-09-29T07:24:09;10.40;75.30
45785;DHT22;31489;51.404;5.474;2022-09-29T07:26:35;10.50;75.50
45785;DHT22;31489;51.404;5.474;2022-09-29T07:29:00;10.50;75.60
45785;DHT22;31489;51.404;5.474;2022-09-29T07:31:26;10.60;75.70
45785;DHT22;31489;51.404;5.474;2022-09-29T07:33:51;10.70;76.00
45785;DHT22;31489;51.404;5.474;2022-09-29T07:36:19;10.80;76.30
45785;DHT22;31489;51.404;5.474;2022-09-29T07:38:46;10.80;76.50
45785;DHT22;31489;51.404;5.474;2022-09-29T07:41:12;10.90;76.50
45785;DHT22;31489;51.404;5.474;2022-09-29T07:43:38;11.00;76.60
45785;DHT22;31489;51.404;5.474;2022-09-29T07:46:04;11.10;76.70
45785;DHT22;31489;51.404;5.474;2022-09-29T07:48:31;11.20;76.80
45785;DHT22;31489;51.404;5.474;2022-09-29T07:51:05;11.30;76.80
45785;DHT22;31489;51.404;5.474;2022-09-29T07:53:31;11.40;76.80
45785;DHT22;31489;51.404;5.474;2022-09-29T07:56:09;11.50;76.90
45785;DHT22;31489;51.404;5.474;2022-09-29T07:58:36;11.60;76.40
45785;DHT22;31489;51.404;5.474;2022-09-29T08:01:06;11.60;76.30
45785;DHT22;31489;51.404;5.474;2022-09-29T08:03:38;11.70;76.30
45785;DHT22;31489;51.404;5.474;2022-09-29T08:06:07;11.80;76.40
45785;DHT22;31489;51.404;5.474;2022-09-29T08:08:40;11.90;76.50
45785;DHT22;31489;51.404;5.474;2022-09-29T08:11:11;12.00;76.60
45785;DHT22;31489;51.404;5.474;2022-09-29T08:13:38;12.10;76.80
45785;DHT22;31489;51.404;5.474;2022-09-29T08:16:06;12.20;76.80
45785;DHT22;31489;51.404;5.474;2022-09-29T08:18:32;12.30;76.90
45785;DHT22;31489;51.404;5.474;2022-09-29T08:20:59;12.30;76.70
45785;DHT22;31489;51.404;5.474;2022-09-29T08:23:25;12.40;76.70
45785;DHT22;31489;51.404;5.474;2022-09-29T08:26:01;12.50;76.60
45785;DHT22;31489;51.404;5.474;2022-09-29T08:28:31;12.60;76.00
45785;DHT22;31489;51.404;5.474;2022-09-29T08:31:01;12.70;76.60
45785;DHT22;31489;51.404;5.474;2022-09-29T08:33:27;12.70;76.10
45785;DHT22;31489;51.404;5.474;2022-09-29T08:35:57;12.80;76.30
45785;DHT22;31489;51.404;5.474;2022-09-29T08:38:23;12.80;76.20
45785;DHT22;31489;51.404;5.474;2022-09-29T08:41:04;12.90;76.50
45785;DHT22;31489;51.404;5.474;2022-09-29T08:43:36;13.00;76.30
45785;DHT22;31489;51.404;5.474;2022-09-29T08:46:09;13.10;76.60
45785;DHT22;31489;51.404;5.474;2022-09-29T08:48:40;13.10;76.60
45785;DHT22;31489;51.404;5.474;2022-09-29T08:51:33;13.20;76.60
45785;DHT22;31489;51.404;5.474;2022-09-29T08:54:19;13.20;76.60
45785;DHT22;31489;51.404;5.474;2022-09-29T08:56:46;13.30;76.50
45785;DHT22;31489;51.404;5.474;2022-09-29T08:59:11;13.40;76.90
45785;DHT22;31489;51.404;5.474;2022-09-29T09:08:07;13.60;76.20
45785;DHT22;31489;51.404;5.474;2022-09-29T09:10:48;13.60;76.90
45785;DHT22;31489;51.404;5.474;2022-09-29T09:16:47;13.80;77.30
45785;DHT22;31489;51.404;5.474;2022-09-29T09:22:23;13.90;76.30
45785;DHT22;31489;51.404;5.474;2022-09-29T09:25:17;14.00;76.90
45785;DHT22;31489;51.404;5.474;2022-09-29T09:27:47;14.10;77.10
45785;DHT22;31489;51.404;5.474;2022-09-29T09:30:15;14.20;76.70
45785;DHT22;31489;51.404;5.474;2022-09-29T09:32:55;14.20;76.70
45785;DHT22;31489;51.404;5.474;2022-09-29T09:35:34;14.30;75.80
45785;DHT22;31489;51.404;5.474;2022-09-29T09:38:23;14.30;76.00
45785;DHT22;31489;51.404;5.474;2022-09-29T09:40:52;14.40;75.20
45785;DHT22;31489;51.404;5.474;2022-09-29T09:46:02;14.50;75.30
45785;DHT22;31489;51.404;5.474;2022-09-29T09:48:35;14.60;75.30
45785;DHT22;31489;51.404;5.474;2022-09-29T09:52:08;14.70;75.60
45785;DHT22;31489;51.404;5.474;2022-09-29T09:54:34;14.80;75.00
45785;DHT22;31489;51.404;5.474;2022-09-29T09:57:26;14.90;74.70
45785;DHT22;31489;51.404;5.474;2022-09-29T10:00:02;15.00;74.90
45785;DHT22;31489;51.404;5.474;2022-09-29T10:02:29;15.20;75.20
45785;DHT22;31489;51.404;5.474;2022-09-29T10:04:55;15.30;75.40
45785;DHT22;31489;51.404;5.474;2022-09-29T10:07:24;15.40;75.30
45785;DHT22;31489;51.404;5.474;2022-09-29T10:09:50;15.70;76.40
45785;DHT22;31489;51.404;5.474;2022-09-29T10:12:19;16.00;76.80
45785;DHT22;31489;51.404;5.474;2022-09-29T10:14:58;16.40;76.30
45785;DHT22;31489;51.404;5.474;2022-09-29T10:17:30;16.90;74.10
45785;DHT22;31489;51.404;5.474;2022-09-29T10:19:59;17.40;75.70
45785;DHT22;31489;51.404;5.474;2022-09-29T10:22:27;18.00;76.70
45785;DHT22;31489;51.404;5.474;2022-09-29T10:25:14;18.60;75.50
45785;DHT22;31489;51.404;5.474;2022-09-29T10:27:42;19.30;71.10
45785;DHT22;31489;51.404;5.474;2022-09-29T10:30:37;20.00;72.90
45785;DHT22;31489;51.404;5.474;2022-09-29T10:33:07;20.70;68.60
45785;DHT22;31489;51.404;5.474;2022-09-29T10:35:40;21.30;69.40
45785;DHT22;31489;51.404;5.474;2022-09-29T10:38:17;21.90;67.90
45785;DHT22;31489;51.404;5.474;2022-09-29T10:41:07;22.50;63.30
45785;DHT22;31489;51.404;5.474;2022-09-29T10:45:58;23.50;64.70
45785;DHT22;31489;51.404;5.474;2022-09-29T10:48:26;23.90;62.20
45785;DHT22;31489;51.404;5.474;2022-09-29T10:51:00;24.20;60.90
45785;DHT22;31489;51.404;5.474;2022-09-29T10:53:40;24.50;57.10
45785;DHT22;31489;51.404;5.474;2022-09-29T10:56:16;24.80;55.90
45785;DHT22;31489;51.404;5.474;2022-09-29T10:58:44;25.00;55.00
45785;DHT22;31489;51.404;5.474;2022-09-29T11:01:17;25.00;55.10
45785;DHT22;31489;51.404;5.474;2022-09-29T11:03:53;25.00;54.90
45785;DHT22;31489;51.404;5.474;2022-09-29T11:06:36;24.90;53.60
45785;DHT22;31489;51.404;5.474;2022-09-29T11:09:06;25.00;53.60
45785;DHT22;31489;51.404;5.474;2022-09-29T11:11:54;25.00;52.70
45785;DHT22;31489;51.404;5.474;2022-09-29T11:17:18;24.60;50.40
45785;DHT22;31489;51.404;5.474;2022-09-29T11:19:44;24.40;51.80
45785;DHT22;31489;51.404;5.474;2022-09-29T11:27:52;23.80;52.40
45785;DHT22;31489;51.404;5.474;2022-09-29T11:30:23;23.60;50.90
45785;DHT22;31489;51.404;5.474;2022-09-29T11:36:05;23.40;51.60
45785;DHT22;31489;51.404;5.474;2022-09-29T11:38:46;23.30;51.50
45785;DHT22;31489;51.404;5.474;2022-09-29T11:41:23;23.20;51.20
45785;DHT22;31489;51.404;5.474;2022-09-29T11:44:19;23.10;51.30
45785;DHT22;31489;51.404;5.474;2022-09-29T11:46:52;23.10;53.70
45785;DHT22;31489;51.404;5.474;2022-09-29T12:00:52;24.50;50.60
45785;DHT22;31489;51.404;5.474;2022-09-29T12:07:26;24.80;51.40
45785;DHT22;31489;51.404;5.474;2022-09-29T12:17:28;24.40;47.10
45785;DHT22;31489;51.404;5.474;2022-09-29T12:20:19;24.10;48.10
45785;DHT22;31489;51.404;5.474;2022-09-29T12:22:46;23.80;47.90
45785;DHT22;31489;51.404;5.474;2022-09-29T12:25:16;23.60;49.10
45785;DHT22;31489;51.404;5.474;2022-09-29T12:27:44;23.40;49.70
45785;DHT22;31489;51.404;5.474;2022-09-29T12:30:28;23.20;50.70
45785;DHT22;31489;51.404;5.474;2022-09-29T12:33:14;23.10;49.20
45785;DHT22;31489;51.404;5.474;2022-09-29T12:35:49;23.10;49.00
45785;DHT22;31489;51.404;5.474;2022-09-29T12:38:39;23.00;49.90
45785;DHT22;31489;51.404;5.474;2022-09-29T12:41:25;23.00;49.90
45785;DHT22;31489;51.404;5.474;2022-09-29T12:44:12;23.00;51.20
45785;DHT22;31489;51.404;5.474;2022-09-29T12:46:50;23.20;50.30
45785;DHT22;31489;51.404;5.474;2022-09-29T12:49:33;23.40;50.50
45785;DHT22;31489;51.404;5.474;2022-09-29T12:52:03;23.60;50.30
45785;DHT22;31489;51.404;5.474;2022-09-29T12:54:40;23.90;49.90
45785;DHT22;31489;51.404;5.474;2022-09-29T12:57:18;24.00;51.00
45785;DHT22;31489;51.404;5.474;2022-09-29T13:10:25;24.90;48.10
45785;DHT22;31489;51.404;5.474;2022-09-29T13:24:10;25.60;49.20
45785;DHT22;31489;51.404;5.474;2022-09-29T13:29:16;25.80;46.10
45785;DHT22;31489;51.404;5.474;2022-09-29T13:31:44;25.70;45.70
45785;DHT22;31489;51.404;5.474;2022-09-29T13:36:53;25.40;44.30
45785;DHT22;31489;51.404;5.474;2022-09-29T13:39:29;25.20;46.40
45785;DHT22;31489;51.404;5.474;2022-09-29T13:41:55;25.10;47.10
45785;DHT22;31489;51.404;5.474;2022-09-29T13:44:26;25.00;47.10
45785;DHT22;31489;51.404;5.474;2022-09-29T13:46:53;25.00;46.20
45785;DHT22;31489;51.404;5.474;2022-09-29T13:54:48;25.00;46.80
45785;DHT22;31489;51.404;5.474;2022-09-29T13:57:20;25.00;45.40
45785;DHT22;31489;51.404;5.474;2022-09-29T14:05:03;25.10;44.20
45785;DHT22;31489;51.404;5.474;2022-09-29T14:08:06;25.10;46.00
45785;DHT22;31489;51.404;5.474;2022-09-29T14:15:54;25.30;45.50
45785;DHT22;31489;51.404;5.474;2022-09-29T14:18:36;25.30;44.30
45785;DHT22;31489;51.404;5.474;2022-09-29T14:21:05;25.40;43.20
45785;DHT22;31489;51.404;5.474;2022-09-29T14:23:57;25.40;44.90
45785;DHT22;31489;51.404;5.474;2022-09-29T14:29:16;25.40;43.50
45785;DHT22;31489;51.404;5.474;2022-09-29T14:31:45;25.40;43.30
45785;DHT22;31489;51.404;5.474;2022-09-29T14:34:15;25.40;44.10
45785;DHT22;31489;51.404;5.474;2022-09-29T14:36:41;25.40;43.90
45785;DHT22;31489;51.404;5.474;2022-09-29T14:39:13;25.30;44.20
45785;DHT22;31489;51.404;5.474;2022-09-29T14:41:42;25.20;44.50
45785;DHT22;31489;51.404;5.474;2022-09-29T14:44:18;25.10;43.10
45785;DHT22;31489;51.404;5.474;2022-09-29T14:47:04;25.10;44.60
45785;DHT22;31489;51.404;5.474;2022-09-29T14:53:34;24.70;44.10
45785;DHT22;31489;51.404;5.474;2022-09-29T14:58:51;24.40;43.50
45785;DHT22;31489;51.404;5.474;2022-09-29T15:01:28;24.40;45.10
45785;DHT22;31489;51.404;5.474;2022-09-29T15:04:08;24.20;44.80
45785;DHT22;31489;51.404;5.474;2022-09-29T15:06:47;24.10;45.00
45785;DHT22;31489;51.404;5.474;2022-09-29T15:09:17;24.00;45.90
45785;DHT22;31489;51.404;5.474;2022-09-29T15:17:03;23.80;45.10
45785;DHT22;31489;51.404;5.474;2022-09-29T15:22:36;23.60;45.00
45785;DHT22;31489;51.404;5.474;2022-09-29T15:25:31;23.50;45.10
45785;DHT22;31489;51.404;5.474;2022-09-29T15:30:50;23.40;47.00
45785;DHT22;31489;51.404;5.474;2022-09-29T15:33:27;23.40;46.90
45785;DHT22;31489;51.404;5.474;2022-09-29T15:36:05;23.30;44.40
45785;DHT22;31489;51.404;5.474;2022-09-29T15:38:34;23.20;46.80
45785;DHT22;31489;51.404;5.474;2022-09-29T15:44:00;23.00;47.00
45785;DHT22;31489;51.404;5.474;2022-09-29T15:49:06;22.80;47.30
45785;DHT22;31489;51.404;5.474;2022-09-29T15:51:38;22.80;48.30
45785;DHT22;31489;51.404;5.474;2022-09-29T15:54:05;22.60;49.00
45785;DHT22;31489;51.404;5.474;2022-09-29T15:56:33;22.50;49.60
45785;DHT22;31489;51.404;5.474;2022-09-29T15:59:20;22.40;49.90
45785;DHT22;31489;51.404;5.474;2022-09-29T16:02:01;22.30;50.40
45785;DHT22;31489;51.404;5.474;2022-09-29T16:04:32;22.20;50.00
45785;DHT22;31489;51.404;5.474;2022-09-29T16:06:58;22.20;51.20
45785;DHT22;31489;51.404;5.474;2022-09-29T16:09:29;22.10;51.40
45785;DHT22;31489;51.404;5.474;2022-09-29T16:11:55;22.00;51.20
45785;DHT22;31489;51.404;5.474;2022-09-29T16:14:28;21.90;51.60
45785;DHT22;31489;51.404;5.474;2022-09-29T16:17:03;21.80;51.20
45785;DHT22;31489;51.404;5.474;2022-09-29T16:19:33;21.70;52.00
45785;DHT22;31489;51.404;5.474;2022-09-29T16:22:03;21.70;52.30
45785;DHT22;31489;51.404;5.474;2022-09-29T16:24:35;21.60;52.00
45785;DHT22;31489;51.404;5.474;2022-09-29T16:27:02;21.50;51.70
45785;DHT22;31489;51.404;5.474;2022-09-29T16:31:55;21.30;52.40
45785;DHT22;31489;51.404;5.474;2022-09-29T16:34:28;21.20;52.80
45785;DHT22;31489;51.404;5.474;2022-09-29T16:36:55;21.10;52.70
45785;DHT22;31489;51.404;5.474;2022-09-29T16:39:30;21.00;53.30
45785;DHT22;31489;51.404;5.474;2022-09-29T16:42:00;20.90;53.10
45785;DHT22;31489;51.404;5.474;2022-09-29T16:44:41;20.80;53.20
45785;DHT22;31489;51.404;5.474;2022-09-29T16:47:22;20.70;52.60
45785;DHT22;31489;51.404;5.474;2022-09-29T16:49:57;20.60;53.00
45785;DHT22;31489;51.404;5.474;2022-09-29T16:52:27;20.50;53.30
45785;DHT22;31489;51.404;5.474;2022-09-29T17:00:19;20.20;53.90
45785;DHT22;31489;51.404;5.474;2022-09-29T17:02:52;20.10;54.70
45785;DHT22;31489;51.404;5.474;2022-09-29T17:05:20;20.00;54.60
45785;DHT22;31489;51.404;5.474;2022-09-29T17:07:49;19.90;55.10
45785;DHT22;31489;51.404;5.474;2022-09-29T17:10:17;19.80;55.10
45785;DHT22;31489;51.404;5.474;2022-09-29T17:12:46;19.70;55.10
45785;DHT22;31489;51.404;5.474;2022-09-29T17:15:13;19.60;55.50
45785;DHT22;31489;51.404;5.474;2022-09-29T17:17:39;19.50;55.70
45785;DHT22;31489;51.404;5.474;2022-09-29T17:20:13;19.40;55.90
45785;DHT22;31489;51.404;5.474;2022-09-29T17:22:39;19.30;55.70
45785;DHT22;31489;51.404;5.474;2022-09-29T17:25:06;19.20;56.30
45785;DHT22;31489;51.404;5.474;2022-09-29T17:27:32;19.10;56.40
45785;DHT22;31489;51.404;5.474;2022-09-29T17:30:19;19.00;56.60
45785;DHT22;31489;51.404;5.474;2022-09-29T17:32:48;19.00;56.90
45785;DHT22;31489;51.404;5.474;2022-09-29T17:35:16;18.90;57.00
45785;DHT22;31489;51.404;5.474;2022-09-29T17:37:43;18.80;57.10
45785;DHT22;31489;51.404;5.474;2022-09-29T17:40:28;18.70;57.40
45785;DHT22;31489;51.404;5.474;2022-09-29T17:42:55;18.60;57.20
45785;DHT22;31489;51.404;5.474;2022-09-29T17:45:25;18.60;57.90
45785;DHT22;31489;51.404;5.474;2022-09-29T17:47:51;18.50;57.90
45785;DHT22;31489;51.404;5.474;2022-09-29T17:53:05;18.40;58.00
45785;DHT22;31489;51.404;5.474;2022-09-29T17:55:33;18.30;58.90
45785;DHT22;31489;51.404;5.474;2022-09-29T17:58:04;18.20;58.30
45785;DHT22;31489;51.404;5.474;2022-09-29T18:00:35;18.20;58.30
45785;DHT22;31489;51.404;5.474;2022-09-29T18:03:08;18.10;58.50
45785;DHT22;31489;51.404;5.474;2022-09-29T18:05:37;18.00;58.80
45785;DHT22;31489;51.404;5.474;2022-09-29T18:08:17;18.00;58.90
45785;DHT22;31489;51.404;5.474;2022-09-29T18:10:58;17.90;59.00
45785;DHT22;31489;51.404;5.474;2022-09-29T18:13:28;17.80;58.70
45785;DHT22;31489;51.404;5.474;2022-09-29T18:15:57;17.70;59.10
45785;DHT22;31489;51.404;5.474;2022-09-29T18:18:26;17.70;59.40
45785;DHT22;31489;51.404;5.474;2022-09-29T18:20:52;17.60;59.50
45785;DHT22;31489;51.404;5.474;2022-09-29T18:23:18;17.60;59.60
45785;DHT22;31489;51.404;5.474;2022-09-29T18:25:59;17.50;59.80
45785;DHT22;31489;51.404;5.474;2022-09-29T18:28:27;17.40;59.80
45785;DHT22;31489;51.404;5.474;2022-09-29T18:31:06;17.30;60.00
45785;DHT22;31489;51.404;5.474;2022-09-29T18:33:32;17.30;59.90
45785;DHT22;31489;51.404;5.474;2022-09-29T18:36:03;17.20;60.30
45785;DHT22;31489;51.404;5.474;2022-09-29T18:38:31;17.20;60.40
45785;DHT22;31489;51.404;5.474;2022-09-29T18:41:01;17.10;60.40
45785;DHT22;31489;51.404;5.474;2022-09-29T18:43:27;17.10;60.60
45785;DHT22;31489;51.404;5.474;2022-09-29T18:45:57;17.00;60.70